createdAt,value
2018-11-06T00:00:48.993Z,97642.00
2018-11-06T00:03:24.095Z,97643.28
2018-11-06T00:05:53.163Z,97641.83
2018-11-06T00:08:21.830Z,97642.52
2018-11-06T00:10:50.976Z,97639.05
2018-11-06T00:13:20.175Z,97639.05
2018-11-06T00:15:49.471Z,97638.68
2018-11-06T00:18:19.118Z,97632.09
2018-11-06T00:20:47.711Z,97632.55
2018-11-06T00:23:16.868Z,97633.78
2018-11-06T00:25:45.481Z,97634.77
2018-11-06T00:28:14.034Z,97627.66
2018-11-06T00:30:42.650Z,97625.58
2018-11-06T00:33:11.243Z,97633.73
2018-11-06T00:35:39.616Z,97623.66
2018-11-06T00:38:08.396Z,97626.48
2018-11-06T00:40:36.832Z,97627.20
2018-11-06T00:43:05.314Z,97623.43
2018-11-06T00:45:34.250Z,97627.77
2018-11-06T00:48:02.981Z,97623.98
2018-11-06T00:50:31.828Z,97623.17
2018-11-06T00:53:00.602Z,97623.39
2018-11-06T00:55:28.998Z,97621.38
2018-11-06T00:57:57.439Z,97623.91
2018-11-06T01:00:26.128Z,97627.52
2018-11-06T01:02:55.575Z,97624.45
2018-11-06T01:05:24.899Z,97625.64
2018-11-06T01:07:53.551Z,97629.94
2018-11-06T01:10:21.959Z,97618.82
2018-11-06T01:12:51.065Z,97614.71
2018-11-06T01:15:19.501Z,97617.85
2018-11-06T01:17:48.172Z,97619.16
2018-11-06T01:20:17.765Z,97609.02
2018-11-06T01:22:46.707Z,97611.48
2018-11-06T01:25:15.635Z,97612.52
2018-11-06T01:27:44.734Z,97602.88
2018-11-06T01:30:17.307Z,97610.87
2018-11-06T01:32:46.130Z,97611.45
2018-11-06T01:35:15.641Z,97608.37
2018-11-06T01:37:45.167Z,97608.72
2018-11-06T01:40:15.823Z,97612.89
2018-11-06T01:42:45.076Z,97607.00
2018-11-06T01:45:14.812Z,97604.33
2018-11-06T01:47:43.147Z,97605.24
2018-11-06T01:50:16.108Z,97604.75
2018-11-06T01:52:47.865Z,97609.50
2018-11-06T01:55:18.586Z,97607.61
2018-11-06T01:57:53.057Z,97611.62
2018-11-06T02:00:24.129Z,97610.02
2018-11-06T02:02:54.560Z,97607.92
2018-11-06T02:05:26.472Z,97614.72
2018-11-06T02:07:55.313Z,97609.32
2018-11-06T02:10:23.759Z,97607.12
2018-11-06T02:12:52.239Z,97604.22
2018-11-06T02:15:21.023Z,97604.70
2018-11-06T02:17:49.797Z,97599.45
2018-11-06T02:20:18.295Z,97588.09
2018-11-06T02:22:47.807Z,97592.56
2018-11-06T02:25:16.303Z,97586.83
2018-11-06T02:27:45.323Z,97593.50
2018-11-06T02:30:15.804Z,97592.92
2018-11-06T02:32:45.280Z,97583.14
2018-11-06T02:35:14.455Z,97583.67
2018-11-06T02:37:43.549Z,97581.14
2018-11-06T02:40:14.147Z,97581.23
2018-11-06T02:42:43.486Z,97583.40
2018-11-06T02:45:12.836Z,97578.55
2018-11-06T02:47:41.815Z,97572.67
2018-11-06T02:50:11.737Z,97580.84
2018-11-06T02:52:40.581Z,97581.08
2018-11-06T02:55:09.415Z,97586.38
2018-11-06T02:57:37.903Z,97586.69
2018-11-06T03:00:09.615Z,97585.78
2018-11-06T03:02:38.114Z,97592.87
2018-11-06T03:05:07.688Z,97592.27
2018-11-06T03:07:37.204Z,97590.28
2018-11-06T03:10:06.787Z,97593.45
2018-11-06T03:12:35.320Z,97595.41
2018-11-06T03:15:04.527Z,97596.25
2018-11-06T03:17:32.972Z,97604.91
2018-11-06T03:20:02.588Z,97596.09
2018-11-06T03:22:33.838Z,97595.10
2018-11-06T03:25:02.534Z,97594.94
2018-11-06T03:27:31.056Z,97592.41
2018-11-06T03:30:08.499Z,97591.75
2018-11-06T03:32:37.196Z,97599.05
2018-11-06T03:35:07.465Z,97592.12
2018-11-06T03:37:36.390Z,97590.45
2018-11-06T03:40:05.667Z,97588.21
2018-11-06T03:42:34.599Z,97589.38
2018-11-06T03:45:04.163Z,97589.38
2018-11-06T03:47:32.541Z,97591.75
2018-11-06T03:50:01.640Z,97593.98
2018-11-06T03:52:30.492Z,97608.30
2018-11-06T03:54:59.007Z,97607.75
2018-11-06T03:57:27.752Z,97609.61
2018-11-06T03:59:56.189Z,97613.44
2018-11-06T04:02:25.255Z,97609.83
2018-11-06T04:04:54.545Z,97619.09
2018-11-06T04:07:22.979Z,97619.36
2018-11-06T04:09:51.620Z,97617.80
2018-11-06T04:12:20.093Z,97617.97
2018-11-06T04:14:48.578Z,97619.26
2018-11-06T04:17:19.619Z,97626.44
2018-11-06T04:19:48.172Z,97632.63
2018-11-06T04:22:17.423Z,97622.80
2018-11-06T04:24:45.798Z,97617.89
2018-11-06T04:27:14.284Z,97619.05
2018-11-06T04:29:42.716Z,97623.98
2018-11-06T04:32:11.155Z,97620.63
2018-11-06T04:34:39.561Z,97620.33
2018-11-06T04:37:07.935Z,97626.30
2018-11-06T04:39:36.811Z,97625.19
2018-11-06T04:42:05.556Z,97614.12
2018-11-06T04:44:33.973Z,97619.83
2018-11-06T04:47:03.508Z,97619.62
2018-11-06T04:49:33.103Z,97611.00
2018-11-06T04:52:01.474Z,97609.47
2018-11-06T04:54:30.877Z,97610.77
2018-11-06T04:56:59.486Z,97608.50
2018-11-06T04:59:27.939Z,97607.56
2018-11-06T05:01:56.449Z,97600.66
2018-11-06T05:04:24.848Z,97605.68
2018-11-06T05:06:53.230Z,97602.18
2018-11-06T05:09:22.885Z,97597.16
2018-11-06T05:11:51.284Z,97591.97
2018-11-06T05:14:20.014Z,97596.90
2018-11-06T05:16:48.686Z,97592.91
2018-11-06T05:19:17.061Z,97596.58
2018-11-06T05:21:45.939Z,97591.97
2018-11-06T05:24:14.903Z,97595.42
2018-11-06T05:26:44.303Z,97596.72
2018-11-06T05:29:13.295Z,97591.28
2018-11-06T05:31:41.671Z,97595.64
2018-11-06T05:34:10.050Z,97589.81
2018-11-06T05:36:38.511Z,97589.26
2018-11-06T05:39:10.042Z,97588.62
2018-11-06T05:41:38.724Z,97583.07
2018-11-06T05:44:07.185Z,97586.06
2018-11-06T05:46:35.633Z,97582.86
2018-11-06T05:51:43.344Z,97584.75
2018-11-06T05:54:12.327Z,97591.86
2018-11-06T05:56:40.708Z,97596.41
2018-11-06T05:59:09.630Z,97598.70
2018-11-06T06:01:37.990Z,97609.59
2018-11-06T06:04:07.298Z,97609.72
2018-11-06T06:06:35.724Z,97607.53
2018-11-06T06:09:06.627Z,97603.30
2018-11-06T06:11:35.067Z,97607.44
2018-11-06T06:14:03.465Z,97598.58
2018-11-06T06:16:31.895Z,97607.69
2018-11-06T06:19:00.344Z,97600.94
2018-11-06T06:21:29.674Z,97599.52
2018-11-06T06:23:58.440Z,97598.92
2018-11-06T06:26:27.382Z,97594.09
2018-11-06T06:28:57.642Z,97585.09
2018-11-06T06:31:28.989Z,97595.45
2018-11-06T06:34:01.313Z,97596.37
2018-11-06T06:36:32.542Z,97593.25
2018-11-06T06:39:03.890Z,97598.19
2018-11-06T06:41:34.511Z,97600.92
2018-11-06T06:44:05.459Z,97603.72
2018-11-06T06:46:36.087Z,97596.78
2018-11-06T06:49:06.940Z,97597.55
2018-11-06T06:51:37.345Z,97585.42
2018-11-06T06:54:08.377Z,97589.38
2018-11-06T06:56:39.916Z,97595.08
2018-11-06T06:59:09.617Z,97587.14
2018-11-06T07:01:40.509Z,97583.01
2018-11-06T07:04:11.022Z,97583.22
2018-11-06T07:06:41.416Z,97585.72
2018-11-06T07:09:12.157Z,97584.70
2018-11-06T07:11:42.568Z,97585.15
2018-11-06T07:14:13.992Z,97590.97
2018-11-06T07:16:44.674Z,97583.97
2018-11-06T07:19:15.076Z,97579.08
2018-11-06T07:21:46.357Z,97585.37
2018-11-06T07:24:16.921Z,97591.08
2018-11-06T07:26:47.325Z,97589.39
2018-11-06T07:29:17.809Z,97584.42
2018-11-06T07:31:48.218Z,97588.05
2018-11-06T07:34:19.372Z,97583.55
2018-11-06T07:36:49.540Z,97577.20
2018-11-06T07:39:20.320Z,97575.72
2018-11-06T07:41:50.788Z,97574.86
2018-11-06T07:44:22.121Z,97577.83
2018-11-06T07:46:52.209Z,97588.77
2018-11-06T07:49:22.524Z,97583.39
2018-11-06T07:51:52.413Z,97579.47
2018-11-06T07:54:22.750Z,97583.97
2018-11-06T07:56:52.725Z,97582.25
2018-11-06T07:59:23.387Z,97571.78
2018-11-06T08:01:54.822Z,97573.28
2018-11-06T08:04:25.687Z,97581.55
2018-11-06T08:06:56.795Z,97587.02
2018-11-06T08:09:27.527Z,97586.39
2018-11-06T08:12:12.793Z,97593.20
2018-11-06T08:14:43.498Z,97585.69
2018-11-06T08:17:14.302Z,97589.86
2018-11-06T08:19:44.777Z,97583.03
2018-11-06T08:22:15.271Z,97578.92
2018-11-06T08:24:46.089Z,97574.70
2018-11-06T08:27:16.858Z,97576.87
2018-11-06T08:29:47.754Z,97570.91
2018-11-06T08:32:19.095Z,97572.38
2018-11-06T08:34:49.668Z,97573.89
2018-11-06T08:37:20.009Z,97572.52
2018-11-06T08:39:50.729Z,97563.83
2018-11-06T08:42:20.664Z,97570.88
2018-11-06T08:44:51.940Z,97568.27
2018-11-06T08:47:22.537Z,97567.89
2018-11-06T08:49:52.778Z,97571.92
2018-11-06T08:52:25.691Z,97574.95
2018-11-06T08:54:56.855Z,97576.41
2018-11-06T08:57:27.494Z,97576.73
2018-11-06T08:59:58.385Z,97572.59
2018-11-06T09:02:28.193Z,97566.48
2018-11-06T09:04:59.176Z,97563.03
2018-11-06T09:07:29.866Z,97568.42
2018-11-06T09:10:00.416Z,97559.19
2018-11-06T09:12:32.076Z,97552.72
2018-11-06T09:15:02.502Z,97555.08
2018-11-06T09:17:34.148Z,97562.50
2018-11-06T09:20:04.772Z,97555.59
2018-11-06T09:22:35.729Z,97556.94
2018-11-06T09:25:08.864Z,97559.59
2018-11-06T09:27:39.702Z,97556.18
2018-11-06T09:30:13.241Z,97559.59
2018-11-06T09:32:46.292Z,97558.47
2018-11-06T09:35:19.000Z,97564.98
2018-11-06T09:37:50.111Z,97567.20
2018-11-06T09:40:21.490Z,97563.94
2018-11-06T09:42:53.041Z,97569.38
2018-11-06T09:45:23.338Z,97564.02
2018-11-06T09:47:54.220Z,97552.25
2018-11-06T09:50:33.939Z,97562.78
2018-11-06T09:53:05.714Z,97549.87
2018-11-06T09:55:40.633Z,97554.03
2018-11-06T09:58:12.418Z,97557.47
2018-11-06T10:00:44.147Z,97552.08
2018-11-06T10:03:15.868Z,97550.88
2018-11-06T10:05:47.435Z,97542.91
2018-11-06T10:08:19.451Z,97545.77
2018-11-06T10:10:50.166Z,97547.28
2018-11-06T10:13:20.195Z,97543.94
2018-11-06T10:15:50.805Z,97537.23
2018-11-06T10:18:21.970Z,97533.81
2018-11-06T10:20:52.599Z,97532.55
2018-11-06T10:23:23.895Z,97535.95
2018-11-06T10:25:55.024Z,97530.51
2018-11-06T10:28:26.909Z,97529.20
2018-11-06T10:30:58.948Z,97522.19
2018-11-06T10:33:30.051Z,97524.81
2018-11-06T10:36:01.008Z,97528.20
2018-11-06T10:38:31.246Z,97523.56
2018-11-06T10:41:01.484Z,97521.81
2018-11-06T10:43:31.808Z,97517.72
2018-11-06T10:46:02.174Z,97513.91
2018-11-06T10:48:36.640Z,97510.85
2018-11-06T10:51:07.596Z,97504.81
2018-11-06T10:53:37.772Z,97495.74
2018-11-06T10:56:08.167Z,97495.21
2018-11-06T10:58:38.450Z,97493.52
2018-11-06T11:01:13.972Z,97492.89
2018-11-06T11:03:49.545Z,97484.07
2018-11-06T11:06:20.041Z,97485.40
2018-11-06T11:08:50.959Z,97474.37
2018-11-06T11:11:21.367Z,97467.78
2018-11-06T11:13:51.314Z,97473.77
2018-11-06T11:16:22.022Z,97467.84
2018-11-06T11:18:52.031Z,97463.67
2018-11-06T11:21:22.008Z,97469.97
2018-11-06T11:23:52.544Z,97469.95
2018-11-06T11:26:22.991Z,97462.49
2018-11-06T11:28:54.433Z,97459.58
2018-11-06T11:31:25.159Z,97462.20
2018-11-06T11:33:56.474Z,97457.63
2018-11-06T11:36:26.631Z,97456.09
2018-11-06T11:38:56.980Z,97455.61
2018-11-06T11:41:28.034Z,97452.50
2018-11-06T11:43:59.745Z,97455.92
2018-11-06T11:46:30.103Z,97453.67
2018-11-06T11:49:02.985Z,97446.05
2018-11-06T11:51:33.555Z,97446.38
2018-11-06T11:54:06.446Z,97439.39
2018-11-06T11:56:37.850Z,97442.78
2018-11-06T11:59:09.657Z,97446.03
2018-11-06T12:01:40.721Z,97440.30
2018-11-06T12:04:11.648Z,97441.56
2018-11-06T12:06:42.582Z,97443.61
2018-11-06T12:09:14.568Z,97442.94
2018-11-06T12:11:46.035Z,97432.37
2018-11-06T12:14:17.977Z,97439.53
2018-11-06T12:16:48.610Z,97432.37
2018-11-06T12:19:19.845Z,97438.07
2018-11-06T12:21:51.545Z,97419.16
2018-11-06T12:24:23.371Z,97423.67
2018-11-06T12:26:55.420Z,97419.45
2018-11-06T12:29:27.569Z,97410.55
2018-11-06T12:31:58.545Z,97418.73
2018-11-06T12:34:29.438Z,97414.09
2018-11-06T12:37:00.168Z,97409.66
2018-11-06T12:39:32.084Z,97411.14
2018-11-06T12:42:03.214Z,97408.77
2018-11-06T12:44:34.211Z,97407.28
2018-11-06T12:47:04.325Z,97411.43
2018-11-06T12:49:34.176Z,97413.17
2018-11-06T12:52:04.386Z,97411.90
2018-11-06T12:54:34.197Z,97401.59
2018-11-06T12:57:03.069Z,97393.25
2018-11-06T12:59:31.442Z,97396.61
2018-11-06T13:02:05.230Z,97391.15
2018-11-06T13:04:51.306Z,97393.95
2018-11-06T13:07:40.881Z,97386.92
2018-11-06T13:10:15.186Z,97385.91
2018-11-06T13:12:47.039Z,97384.45
2018-11-06T13:15:19.888Z,97382.14
2018-11-06T13:17:50.476Z,97388.59
2018-11-06T13:20:22.118Z,97386.36
2018-11-06T13:22:53.353Z,97390.99
2018-11-06T13:25:25.571Z,97389.34
2018-11-06T13:27:56.937Z,97375.45
2018-11-06T13:30:28.507Z,97374.59
2018-11-06T13:32:59.871Z,97379.69
2018-11-06T13:35:30.978Z,97377.53
2018-11-06T13:38:02.723Z,97381.14
2018-11-06T13:43:47.392Z,97372.88
2018-11-06T13:46:33.288Z,97372.97
2018-11-06T13:49:24.126Z,97369.73
2018-11-06T13:52:13.438Z,97365.91
2018-11-06T13:54:56.635Z,97360.15
2018-11-06T13:57:32.286Z,97365.63
2018-11-06T14:00:05.302Z,97363.47
2018-11-06T14:02:36.791Z,97364.02
2018-11-06T14:05:08.968Z,97362.83
2018-11-06T14:07:41.176Z,97367.67
2018-11-06T14:10:12.730Z,97370.20
2018-11-06T14:12:45.929Z,97372.77
2018-11-06T14:15:18.411Z,97372.22
2018-11-06T14:17:52.297Z,97370.44
2018-11-06T14:20:24.416Z,97374.10
2018-11-06T14:22:56.675Z,97372.31
2018-11-06T14:25:29.335Z,97380.00
2018-11-06T14:28:01.282Z,97375.67
2018-11-06T14:30:34.066Z,97376.25
2018-11-06T14:33:06.160Z,97380.17
2018-11-06T14:35:38.372Z,97381.79
2018-11-06T14:38:10.393Z,97384.59
2018-11-06T14:40:42.591Z,97378.74
2018-11-06T14:43:15.079Z,97389.04
2018-11-06T14:45:48.035Z,97392.17
2018-11-06T14:48:21.056Z,97386.48
2018-11-06T14:50:53.686Z,97391.31
2018-11-06T14:53:24.198Z,97401.06
2018-11-06T14:55:54.433Z,97398.09
2018-11-06T14:58:25.641Z,97400.24
2018-11-06T15:00:57.627Z,97395.40
2018-11-06T15:03:29.297Z,97400.32
2018-11-06T15:06:00.800Z,97402.36
2018-11-06T15:08:32.790Z,97395.08
2018-11-06T15:11:03.860Z,97400.15
2018-11-06T15:13:38.205Z,97399.69
2018-11-06T15:16:10.225Z,97396.91
2018-11-06T15:18:44.487Z,97400.16
2018-11-06T15:21:20.346Z,97396.44
2018-11-06T15:23:52.520Z,97401.94
2018-11-06T15:26:23.399Z,97410.97
2018-11-06T15:28:54.864Z,97410.25
2018-11-06T15:31:25.913Z,97414.92
2018-11-06T15:33:57.348Z,97413.74
2018-11-06T15:36:28.939Z,97414.12
2018-11-06T15:38:57.944Z,97415.03
2018-11-06T15:41:28.621Z,97420.43
2018-11-06T15:44:01.996Z,97416.14
2018-11-06T15:46:33.827Z,97422.14
2018-11-06T15:49:05.406Z,97427.41
2018-11-06T15:51:37.507Z,97429.91
2018-11-06T15:54:09.052Z,97431.81
2018-11-06T15:56:41.477Z,97435.81
2018-11-06T15:59:12.450Z,97439.86
2018-11-06T16:01:43.277Z,97451.52
2018-11-06T16:04:15.685Z,97456.33
2018-11-06T16:06:47.134Z,97466.30
2018-11-06T16:09:19.370Z,97471.53
2018-11-06T16:11:51.269Z,97473.86
2018-11-06T16:14:23.340Z,97487.55
2018-11-06T16:16:53.057Z,97496.13
2018-11-06T16:19:24.099Z,97499.17
2018-11-06T16:21:54.507Z,97511.76
2018-11-06T16:24:25.746Z,97541.77
2018-11-06T16:26:55.751Z,97544.65
2018-11-06T16:29:25.098Z,97567.80
2018-11-06T16:31:56.539Z,97604.56
2018-11-06T16:34:28.127Z,97592.78
2018-11-06T16:36:56.695Z,97596.36
2018-11-06T16:39:26.768Z,97596.31
2018-11-06T16:41:55.837Z,97603.27
2018-11-06T16:44:28.133Z,97603.41
2018-11-06T16:46:59.239Z,97602.17
2018-11-06T16:49:27.832Z,97611.91
2018-11-06T16:51:57.819Z,97601.41
2018-11-06T16:54:27.900Z,97608.92
2018-11-06T16:56:57.580Z,97611.13
2018-11-06T16:59:26.899Z,97617.85
2018-11-06T17:01:57.582Z,97619.91
2018-11-06T17:04:28.706Z,97622.83
2018-11-06T17:06:59.188Z,97620.55
2018-11-06T17:09:27.866Z,97624.73
2018-11-06T17:11:57.113Z,97635.32
2018-11-06T17:14:27.968Z,97651.16
2018-11-06T17:16:57.183Z,97656.41
2018-11-06T17:19:26.100Z,97659.98
2018-11-06T17:21:54.962Z,97666.36
2018-11-06T17:24:24.285Z,97674.74
2018-11-06T17:26:53.071Z,97664.81
2018-11-06T17:29:23.034Z,97673.45
2018-11-06T17:31:51.839Z,97680.11
2018-11-06T17:34:20.791Z,97679.38
2018-11-06T17:36:49.328Z,97683.56
2018-11-06T17:39:18.613Z,97683.56
2018-11-06T17:41:47.433Z,97686.69
2018-11-06T17:44:16.872Z,97698.95
2018-11-06T17:46:45.667Z,97705.13
2018-11-06T17:49:14.396Z,97704.52
2018-11-06T17:51:43.478Z,97704.51
2018-11-06T17:54:12.273Z,97697.16
2018-11-06T17:56:40.885Z,97696.40
2018-11-06T17:59:09.517Z,97704.69
2018-11-06T18:01:38.035Z,97713.36
2018-11-06T18:04:06.865Z,97723.80
2018-11-06T18:06:35.317Z,97733.61
2018-11-06T18:09:06.503Z,97731.64
2018-11-06T18:11:36.248Z,97734.36
2018-11-06T18:14:05.744Z,97741.85
2018-11-06T18:16:35.271Z,97750.29
2018-11-06T18:19:03.788Z,97746.95
2018-11-06T18:21:32.922Z,97760.04
2018-11-06T18:24:02.025Z,97753.69
2018-11-06T18:26:32.339Z,97757.58
2018-11-06T18:29:01.068Z,97759.36
2018-11-06T18:31:29.682Z,97767.34
2018-11-06T18:33:58.115Z,97770.86
2018-11-06T18:36:27.473Z,97769.41
2018-11-06T18:38:55.968Z,97773.86
2018-11-06T18:41:24.801Z,97775.86
2018-11-06T18:43:53.727Z,97773.65
2018-11-06T18:46:22.165Z,97793.70
2018-11-06T18:48:50.889Z,97788.91
2018-11-06T18:51:19.597Z,97789.48
2018-11-06T18:53:48.734Z,97794.69
2018-11-06T18:56:17.238Z,97790.73
2018-11-06T18:58:45.623Z,97791.81
2018-11-06T19:01:15.134Z,97791.09
2018-11-06T19:03:43.860Z,97795.67
2018-11-06T19:06:12.582Z,97802.32
2018-11-06T19:08:41.938Z,97800.52
2018-11-06T19:11:11.084Z,97810.66
2018-11-06T19:13:40.312Z,97805.05
2018-11-06T19:16:09.027Z,97803.19
2018-11-06T19:18:38.649Z,97792.27
2018-11-06T19:21:07.657Z,97795.00
2018-11-06T19:23:36.177Z,97794.90
2018-11-06T19:26:05.128Z,97794.47
2018-11-06T19:28:33.611Z,97797.30
2018-11-06T19:31:02.080Z,97794.77
2018-11-06T19:33:30.714Z,97799.20
2018-11-06T19:35:59.272Z,97805.89
2018-11-06T19:38:28.784Z,97805.45
2018-11-06T19:40:57.336Z,97804.55
2018-11-06T19:43:32.720Z,97804.58
2018-11-06T19:46:01.653Z,97819.70
2018-11-06T19:48:31.682Z,97824.24
2018-11-06T19:51:00.213Z,97834.67
2018-11-06T19:53:30.759Z,97839.38
2018-11-06T19:55:59.441Z,97843.80
2018-11-06T19:58:28.340Z,97838.67
2018-11-06T20:00:57.355Z,97842.31
2018-11-06T20:03:28.437Z,97837.85
2018-11-06T20:05:57.412Z,97846.98
2018-11-06T20:08:26.746Z,97844.77
2018-11-06T20:10:56.297Z,97842.55
2018-11-06T20:13:24.865Z,97848.64
2018-11-06T20:15:54.628Z,97857.06
2018-11-06T20:18:23.049Z,97861.28
2018-11-06T20:20:52.555Z,97868.99
2018-11-06T20:23:21.487Z,97871.31
2018-11-06T20:25:50.405Z,97865.72
2018-11-06T20:28:22.725Z,97867.70
2018-11-06T20:30:51.310Z,97863.48
2018-11-06T20:33:20.225Z,97865.59
2018-11-06T20:35:49.846Z,97870.61
2018-11-06T20:38:18.404Z,97857.77
2018-11-06T20:40:46.792Z,97855.98
2018-11-06T20:43:15.301Z,97854.25
2018-11-06T20:45:43.726Z,97848.05
2018-11-06T20:48:12.238Z,97849.00
2018-11-06T20:50:40.770Z,97858.56
2018-11-06T20:53:10.235Z,97863.81
2018-11-06T20:55:38.943Z,97868.26
2018-11-06T20:58:07.357Z,97868.72
2018-11-06T21:00:35.904Z,97868.48
2018-11-06T21:03:04.590Z,97868.79
2018-11-06T21:05:33.085Z,97864.17
2018-11-06T21:08:01.571Z,97866.97
2018-11-06T21:10:31.051Z,97859.26
2018-11-06T21:12:59.738Z,97857.48
2018-11-06T21:15:28.654Z,97864.02
2018-11-06T21:17:57.568Z,97866.58
2018-11-06T21:20:26.093Z,97881.18
2018-11-06T21:22:54.557Z,97886.32
2018-11-06T21:25:23.189Z,97889.18
2018-11-06T21:27:51.666Z,97883.58
2018-11-06T21:30:20.901Z,97882.00
2018-11-06T21:32:50.876Z,97874.66
2018-11-06T21:35:19.405Z,97878.15
2018-11-06T21:37:48.429Z,97882.10
2018-11-06T21:40:18.359Z,97880.81
2018-11-06T21:42:47.454Z,97873.20
2018-11-06T21:45:16.603Z,97880.69
2018-11-06T21:47:45.916Z,97873.20
2018-11-06T21:50:15.321Z,97881.84
2018-11-06T21:52:43.769Z,97868.98
2018-11-06T21:55:13.856Z,97867.02
2018-11-06T21:57:42.665Z,97870.97
2018-11-06T22:00:15.556Z,97866.87
2018-11-06T22:02:44.420Z,97877.16
2018-11-06T22:05:14.456Z,97873.98
2018-11-06T22:07:43.693Z,97876.19
2018-11-06T22:10:13.396Z,97880.04
2018-11-06T22:12:43.123Z,97882.59
2018-11-06T22:15:12.663Z,97887.47
2018-11-06T22:17:41.750Z,97883.97
2018-11-06T22:20:16.645Z,97889.94
2018-11-06T22:22:45.648Z,97893.78
2018-11-06T22:25:14.259Z,97894.34
2018-11-06T22:27:43.623Z,97900.98
2018-11-06T22:30:13.517Z,97896.53
2018-11-06T22:32:42.920Z,97891.98
2018-11-06T22:35:12.871Z,97887.16
2018-11-06T22:37:41.891Z,97890.70
2018-11-06T22:40:12.151Z,97881.25
2018-11-06T22:42:41.036Z,97881.94
2018-11-06T22:45:12.658Z,97895.94
2018-11-06T22:47:42.073Z,97896.16
2018-11-06T22:50:12.142Z,97896.75
2018-11-06T22:52:40.859Z,97899.48
2018-11-06T22:55:09.656Z,97898.05
2018-11-06T22:57:38.378Z,97893.14
2018-11-06T23:00:14.468Z,97896.43
2018-11-06T23:02:43.454Z,97892.74
2018-11-06T23:05:12.367Z,97886.77
2018-11-06T23:07:46.495Z,97889.94
2018-11-06T23:10:14.931Z,97894.02
2018-11-06T23:12:44.563Z,97899.02
2018-11-06T23:15:13.269Z,97896.27
2018-11-06T23:17:43.392Z,97896.95
2018-11-06T23:20:12.076Z,97890.38
2018-11-06T23:22:40.721Z,97900.95
2018-11-06T23:25:09.639Z,97894.45
2018-11-06T23:27:39.077Z,97889.41
2018-11-06T23:30:11.081Z,97890.70
2018-11-06T23:32:41.091Z,97898.39
2018-11-06T23:35:10.428Z,97898.63
2018-11-06T23:37:40.011Z,97901.91
2018-11-06T23:40:09.441Z,97895.00
2018-11-06T23:42:38.348Z,97895.83
2018-11-06T23:45:07.647Z,97898.63
2018-11-06T23:47:36.471Z,97908.56
2018-11-06T23:50:06.417Z,97906.94
2018-11-06T23:52:34.826Z,97905.10
2018-11-06T23:55:03.309Z,97912.56
2018-11-06T23:57:31.663Z,97910.17
